Terminal Aerodrome Forecast
Issued by NWS Cleveland, OH

Home | Current Version | Previous Version | Graphics & Text | Print | Product List | Glossary On
Versions: 1 2 3 4 5 6 7 8 9 10 11 12 13 14 15 16 17 18 19 20 21
408
FTUS41 KCLE 212328
TAFTOL
TAF
KTOL 212328Z 2200/2224 15006KT P6SM BKN250
     FM220200 18003KT P6SM BKN100
     FM220600 VRB03KT 4SM BR SCT006 OVC015
      TEMPO 2206/2209 2SM BR BKN006
     FM220900 VRB03KT 2SM BR OVC006
      TEMPO 2210/2213 3/4SM BR OVC002
     FM221600 VRB03KT 6SM HZ BKN025=

USA.gov is the U.S. government's official web portal to all federal, state and local government web resources and services.